Airfield :
LOGIN :

Register | Disclaimer

   EN    FR    IT 

 










Legend :    VFR   Marginal VFR   IFR   Intensive IFR   Very Intensive IFR
Visi :
Ceiling :
>= 8 km
>= 3000ft
5 to 8 km
1000 to 3000 ft
1500m to 5 km
500 to 1000 ft
800 to 1500m
200 to 500 ft
< 800m
< 200 ft
Symbols :   Thunderstorms  Fog  Heavy snow  Heavy precipitations  Wind > 20 kt
SIGMETs :     Misc.  Thunderstorms  Icing  Turbulence  Mountain Waves  Volcanic Ashes






- Airport Elevation : 776 ft
- IATA code : RMS


ETAR - Ramstein Air Base

CURRENT METAR :
  • 201956Z 05004KT 9999 OVC008 02/02 A2992 RMK AO2A SLP149 T00200017 $

EXPIRED METARs :
  • 201856Z 05007KT 9999 OVC008 02/02 A2993 RMK AO2A SLP153 T00210017 $
  • 201756Z 06004KT 9999 OVC009 02/02 A2993 RMK AO2A SLP153 60000 T00200016 10050 20017 58002 $
  • 201726Z 06005KT 9999 OVC008 02/02 A2994 RMK AO2A SLP157 $

TAF COR TAF ETAR
Valid from the 20 at 18:00 until the 22 at 00:00 UTC


201812Z 2018/2124 VRB06KT 9999 OVC008 QNH2992INS
BECMG 2020/2021 VRB06KT 6000 BR OVC007 QNH2984INS
TEMPO 2022/2104 3200 BR
BECMG 2109/2110 VRB06KT 9999 NSW FEW007 BKN015 QNH2979INS
BECMG 2115/2116 VRB06KT 9999 SCT015 BKN035 621002 QNH2974INS TX05/2114Z TN02/2018Z



MET'MAP, your aeronautical weather chart ! - Copyright ORBIFLY December 2007 - Disclaimer

ORBIFLY MET'MAP TEAM :

Programming & Development : Alexandra Zaïnal
Concept & Development : Baudouin d'Aumeries
Co-Development & Prog : Marc-Olivier Méhu
Technical & hardware support : Manuel Goepfert

Contact : metmap@orbifly.com




SOURCES & CREDITS :

   NOAA